ADDS METAR Data INFO
IDs: Format: Raw Decoded Include TAF

Data at: 0340 UTC 28 Jun 2017

KCON 280323Z AUTO 00000KT 1/4SM FG 11/10 A2996 RMK AO2 T01060100 $
KCON 280300Z AUTO 08003KT 3/4SM BR VV002 11/10 A2996 RMK AO2 T01110100
KCON 280258Z AUTO 08003KT 1 3/4SM BR FEW003 11/10 A2995 RMK AO2 T01110100
KCON 280254Z AUTO 00000KT 3SM BR FEW003 11/11 A2996 RMK AO2 T01110106
KCON 280250Z AUTO 21003KT 1 3/4SM BR FEW003 11/11 A2996 RMK AO2 VIS 3/4V5 SLP144 60002 T01110106 53009
KCON 280249Z AUTO 22003KT 1 1/2SM BR FEW003 11/10 A2995 RMK AO2 VIS 3/4V5
KCON 280243Z AUTO 19003KT 1SM BR CLR 11/11 A2995 RMK AO2 T01110106
KCON 280236Z AUTO 17004KT 1SM BR VV003 11/11 A2995 RMK AO2 T01110106
KCON 280233Z AUTO 16004KT 1 3/4SM BR FEW002 11/11 A2995 RMK AO2 T01110106
KCON 280228Z AUTO 14003KT 7SM FEW002 12/11 A2995 RMK AO2 T01170106
KCON 280221Z AUTO 00000KT 2 1/2SM BR SCT002 12/11 A2995 RMK AO2 T01170106
KCON 280219Z AUTO 00000KT 1 1/4SM BR SCT002 12/11 A2995 RMK AO2 T01170106
KCON 280216Z AUTO 00000KT 3/4SM BR VV002 12/11 A2995 RMK AO2 T01170106
KCON 280154Z AUTO 00000KT 1SM BR VV002 12/11 A2994 RMK AO2 T01170111
KCON 280151Z AUTO 00000KT 1 3/4SM BR FEW002 12/11 A2995 RMK AO2 VIS 3/4V5 RAE11 SLP141 P0001 T01170111
KCON 280051Z AUTO 10005KT 9SM -RA OVC080 13/12 A2994 RMK AO2 LTG DSNT SE RAE08B20 TSE2358B16E31 SLP137 P0001 T01280117
KCON 280037Z AUTO 17007KT 10SM OVC080 13/12 A2995 RMK AO2 LTG DSNT NE-S RAE08B20E29 TSE2358B16E31 P0000 T01280117
KCON 280017Z AUTO 10003KT 10SM TS SCT065 OVC085 13/12 A2994 RMK AO2 LTG DSNT ALQDS RAE08 TSE2358B16 P0000 T01280122
KCON 280004Z AUTO 13004KT 10SM VCTS -RA FEW030 BKN070 OVC085 13/13 A2993 RMK AO2 LTG DSNT E-SW TSE2358 P0000 T01330128
KCON 272351Z AUTO 10003KT 9SM -TSRA FEW030 SCT055 OVC080 14/13 A2993 RMK AO2 LTG DSNT ALQDS RAB13 TSB09 SLP135 P0047 60086 T01390128 10217 20139 53012
KCON 272332Z AUTO 03004KT 3SM TSRA BR SCT041 BKN050 OVC075 14/12 A2991 RMK AO2 LTG DSNT S AND SW RAB13 TSB09 P0044 T01390122
KCON 272329Z AUTO 06005KT 1 1/2SM TSRA BR BKN039 BKN050 OVC080 14/12 A2990 RMK AO2 LTG DSNT SW RAB13 TSB09 P0043 T01390122
KCON 272317Z AUTO 22012G19KT 3/4SM +TSRA BR FEW019 SCT038 BKN050 16/13 A2994 RMK AO2 LTG DSNT SW RAB13 TSB09 P0011 T01560133
KCON 272314Z AUTO 23010G16KT 1 3/4SM -TSRA BR FEW016 BKN050 BKN080 16/14 A2995 RMK AO2 LTG DSNT SW RAB13 TSB09 PRESRR P0000 T01560139
KCON 272301Z AUTO 04007KT 10SM VCTS FEW080 BKN110 16/15 A2989 RMK AO2 LTG DSNT SW-NW T01610150
KCON 272251Z AUTO 04006KT 10SM SCT090 BKN110 17/14 A2989 RMK AO2 LTG DSNT SW AND W RAE09 TSE06 SLP123 P0001 T01670144
KCON 272212Z AUTO 05005KT 10SM FEW030 FEW055 SCT110 18/15 A2989 RMK AO2 LTG DSNT NE AND W RAE09 TSE06 P0001 T01780150
KCON 272151Z AUTO 02007KT 9SM -TSRA FEW016 BKN030 OVC110 18/16 A2989 RMK AO2 LTG DSNT N AND NE RAB41 TSB44 SLP123 P0002 T01830156
KCON 272128Z AUTO 17005KT 10SM VCTS BKN090 18/16 A2989 RMK AO2 LTG DSNT NW-NE T01780156
KCON 272116Z AUTO 15007KT 10SM BKN090 18/16 A2989 RMK AO2 LTG DSNT N T01780156
KCON 272051Z AUTO 15007KT 10SM VCTS FEW026 SCT095 19/17 A2989 RMK AO2 LTG DSNT W-NE RAE17 TSE1958 SLP121 P0010 60036 T01890167 58009
KCON 272011Z AUTO 05004KT 10SM VCTS -RA BKN034 BKN046 OVC070 17/16 A2990 RMK AO2 LTG DSNT ALQDS TSE1958 P0010 T01720156
KCON 272004Z AUTO 07005KT 3SM RA BR SCT034 BKN043 OVC070 17/15 A2990 RMK AO2 LTG DSNT ALQDS TSE1958 P0010 T01670150
KCON 271958Z AUTO 08005KT 2 1/2SM VCTS +RA BR BKN036 BKN048 BKN070 16/15 A2990 RMK AO2 LTG DSNT NE AND E AND W TSE58 P0006 T01610150
KCON 271951Z AUTO 06005KT 6SM -TSRA BR FEW015 BKN036 BKN048 17/15 A2990 RMK AO2 LTG DSNT NE AND E RAE00B19 TSE01B03E35B43 SLP127 P0021 T01670150
KCON 271949Z AUTO 08005KT 9SM TS FEW015 BKN038 BKN048 17/15 A2991 RMK AO2 LTG DSNT NE AND E RAE00B19E37 TSE01B03E35B43 P0021
KCON 271935Z AUTO 06003KT 10SM VCTS -RA FEW015 SCT038 BKN048 18/16 A2991 RMK AO2 LTG DSNT NE AND S AND NW RAE00B19 TSE01B03E35 P0021 T01830161
KCON 271931Z AUTO 12003KT 2 1/2SM -TSRA BR FEW015 BKN036 OVC090 18/16 A2991 RMK AO2 LTG DSNT NE AND S AND NW RAE00B19 TSE01B03 P0021 T01780161
KCON 271927Z AUTO VRB04KT 1SM TSRA BR FEW017 BKN036 OVC090 18/16 A2991 RMK AO2 LTG DSNT NE AND NW RAE00B19 TSE01B03 P0021 T01780156
KCON 271920Z AUTO 09007KT 1 3/4SM TSRA BR FEW034 BKN045 OVC090 17/15 A2993 RMK AO2 LTG DSNT NE RAE00B19 TSE01B03 P0002 T01720150
KCON 271851Z AUTO 34009G22KT 10SM -TSRA BKN043 BKN050 OVC070 18/15 A2991 RMK AO2 LTG DSNT N RAB33 TSB46 SLP130 P0005 T01780150
KCON 271818Z AUTO 06004KT 10SM VCTS FEW044 BKN060 BKN090 21/13 A2991 RMK AO2 LTG DSNT W T02110128
KCON 271751Z AUTO VRB04KT 10SM FEW060 SCT075 BKN095 22/13 A2993 RMK AO2 SLP135 60001 T02170133 10222 20150 58026
KCON 271651Z AUTO 26003KT 10SM BKN080 OVC100 21/13 A2996 RMK AO2 SLP146 T02060128
KCON 271551Z AUTO 16004KT 10SM SCT110 20/14 A2998 RMK AO2 SLP151 T02000144
KCON 271451Z AUTO 00000KT 10SM FEW070 BKN110 18/13 A3001 RMK AO2 RAE07 SLP161 P0000 60001 T01780133 50000
KCON 271351Z AUTO 28003KT 9SM -RA BKN075 OVC085 17/14 A3002 RMK AO2 RAB38 SLP167 P0001 T01720139
KCON 271251Z AUTO 00000KT 10SM SCT110 18/14 A3001 RMK AO2 SLP161 T01780144
KCON 271151Z AUTO 19003KT 10SM CLR 15/14 A3001 RMK AO2 SLP161 70010 T01500139 10150 20122 53007
KCON 271051Z AUTO 15003KT 10SM BKN110 14/13 A3000 RMK AO2 SLP158 T01390133
KCON 270951Z AUTO 00000KT 10SM BKN100 OVC120 13/12 A2999 RMK AO2 SLP155 T01330122
KCON 270851Z AUTO 15005KT 10SM CLR 13/12 A2999 RMK AO2 SLP154 T01280122 51004
KCON 270819Z AUTO 14003KT 9SM FEW002 FEW120 13/12 A2998 RMK AO2 T01280117
KCON 270804Z AUTO 16004KT 2 1/2SM BR FEW002 SCT120 13/12 A2999 RMK AO2 T01280122
KCON 270751Z AUTO 00000KT 10SM FEW120 13/12 A2998 RMK AO2 SLP153 T01330122
KCON 270651Z AUTO 08004KT 10SM BKN075 14/13 A2999 RMK AO2 SLP154 T01440133
KCON 270551Z AUTO 10003KT 9SM SCT085 BKN110 14/14 A2997 RMK AO2 RAE11 SLP149 P0001 60010 T01440139 10211 20144 58006
KCON 270451Z AUTO 00000KT 7SM -RA SCT070 BKN085 BKN110 15/14 A3000 RMK AO2 RAB48 SLP157 P0000 T01500139 402500144
KCON 270351Z AUTO 00000KT 10SM BKN120 15/13 A2998 RMK AO2 RAB03E12 SLP152 P0000 T01500133
KCON 270251Z AUTO 15004KT 10SM SCT080 BKN120 15/14 A2999 RMK AO2 SLP156 60009 T01500139 50011
KCON 270151Z AUTO 11004KT 10SM FEW046 SCT065 OVC090 14/13 A2999 RMK AO2 RAB19E49 SLP156 P0009 T01440133
KCON 270142Z AUTO 11005KT 8SM -RA SCT050 OVC085 15/13 A2999 RMK AO2 RAB19 P0009 T01500133
KCON 270134Z AUTO 13003KT 2SM RA FEW046 BKN055 OVC080 16/13 A3000 RMK AO2 RAB19 P0008 T01560128
KCON 270051Z AUTO 00000KT 10SM FEW060 SCT100 18/11 A2998 RMK AO2 SLP151 T01780106
KCON 262351Z AUTO 21004KT 10SM FEW070 FEW095 21/12 A2996 RMK AO2 SLP145 T02060117 10250 20206 53008
KCON 262251Z AUTO 22006KT 10SM SCT100 BKN120 23/11 A2994 RMK AO2 SLP139 T02280106
KCON 262151Z AUTO 26009KT 200V300 10SM FEW120 23/10 A2994 RMK AO2 SLP138 T02330100
KCON 262051Z AUTO 27005KT 10SM OVC095 23/09 A2993 RMK AO2 SLP136 T02280094 56005
KCON 261951Z AUTO 26010G15KT 10SM BKN100 24/09 A2994 RMK AO2 SLP137 T02440094
KCON 261851Z AUTO 24011G18KT 10SM FEW065 BKN100 24/08 A2994 RMK AO2 SLP138 T02390083
KCON 261751Z AUTO 28011KT 10SM FEW090 24/08 A2995 RMK AO2 SLP141 T02440083 10250 20183 58006
KCON 261651Z AUTO VRB06KT 10SM BKN065 23/09 A2996 RMK AO2 SLP143 T02280089
KCON 261551Z AUTO 31012G18KT 10SM CLR 23/08 A2997 RMK AO2 SLP146 T02280083


Page loaded:  03:40 UTC  |   08:40 PM Pacific  |   09:40 PM Mountain  |   10:40 PM Central  |   11:40 PM Eastern

 

ADVISORIES

FORECASTS

FORECASTS

OBSERVATIONS

USER TOOLS

ABOUT US